createdAt,value
2018-01-22T00:00:53.265Z,-1.74
2018-01-22T00:03:22.748Z,-1.74
2018-01-22T00:05:50.616Z,-1.79
2018-01-22T00:08:18.332Z,-1.76
2018-01-22T00:10:46.035Z,-1.75
2018-01-22T00:13:13.802Z,-1.74
2018-01-22T00:15:41.435Z,-1.72
2018-01-22T00:18:09.128Z,-1.69
2018-01-22T00:20:37.555Z,-1.71
2018-01-22T00:23:05.305Z,-1.76
2018-01-22T00:25:32.964Z,-1.82
2018-01-22T00:28:00.667Z,-1.82
2018-01-22T00:30:29.929Z,-1.82
2018-01-22T00:32:57.751Z,-1.76
2018-01-22T00:35:25.645Z,-1.80
2018-01-22T00:37:53.349Z,-1.82
2018-01-22T00:40:22.997Z,-1.84
2018-01-22T00:42:50.796Z,-1.87
2018-01-22T00:45:18.519Z,-1.87
2018-01-22T00:47:46.198Z,-1.86
2018-01-22T00:50:13.950Z,-1.85
2018-01-22T00:52:41.655Z,-1.80
2018-01-22T00:55:09.421Z,-1.80
2018-01-22T00:57:37.088Z,-1.72
2018-01-22T01:00:06.543Z,-1.70
2018-01-22T01:02:35.401Z,-1.72
2018-01-22T01:05:04.981Z,-1.68
2018-01-22T01:07:32.697Z,-1.68
2018-01-22T01:10:00.551Z,-1.71
2018-01-22T01:12:28.261Z,-1.71
2018-01-22T01:14:57.671Z,-1.70
2018-01-22T01:17:25.399Z,-1.71
2018-01-22T01:19:53.040Z,-1.71
2018-01-22T01:22:20.700Z,-1.74
2018-01-22T01:24:48.363Z,-1.73
2018-01-22T01:27:16.099Z,-1.72
2018-01-22T01:29:43.753Z,-1.72
2018-01-22T01:32:12.180Z,-1.72
2018-01-22T01:34:39.871Z,-1.75
2018-01-22T01:37:09.305Z,-1.75
2018-01-22T01:39:38.859Z,-1.76
2018-01-22T01:42:06.574Z,-1.74
2018-01-22T01:44:34.245Z,-1.73
2018-01-22T01:47:01.953Z,-1.72
2018-01-22T01:49:29.642Z,-1.71
2018-01-22T01:51:57.451Z,-1.69
2018-01-22T01:54:25.882Z,-1.66
2018-01-22T01:56:53.539Z,-1.65
2018-01-22T01:59:21.296Z,-1.63
2018-01-22T02:01:48.975Z,-1.62
2018-01-22T02:04:16.642Z,-1.61
2018-01-22T02:06:44.347Z,-1.61
2018-01-22T02:09:12.015Z,-1.61
2018-01-22T02:11:39.903Z,-1.61
2018-01-22T02:14:09.327Z,-1.62
2018-01-22T02:16:37.087Z,-1.61
2018-01-22T02:19:04.729Z,-1.60
2018-01-22T02:21:32.433Z,-1.60
2018-01-22T02:24:01.686Z,-1.58
2018-01-22T02:26:29.434Z,-1.57
2018-01-22T02:28:57.129Z,-1.53
2018-01-22T02:31:24.820Z,-1.51
2018-01-22T02:33:52.457Z,-1.50
2018-01-22T02:36:20.327Z,-1.45
2018-01-22T02:38:47.976Z,-1.41
2018-01-22T02:41:15.675Z,-1.37
2018-01-22T02:43:46.053Z,-1.32
2018-01-22T02:46:14.503Z,-1.29
2018-01-22T02:48:42.215Z,-1.26
2018-01-22T02:51:09.875Z,-1.24
2018-01-22T02:53:37.542Z,-1.23
2018-01-22T02:56:06.978Z,-1.21
2018-01-22T02:58:34.693Z,-1.20
2018-01-22T03:01:02.364Z,-1.18
2018-01-22T03:03:30.237Z,-1.18
2018-01-22T03:05:57.891Z,-1.17
2018-01-22T03:08:25.891Z,-1.16
2018-01-22T03:10:53.591Z,-1.15
2018-01-22T03:13:21.237Z,-1.14
2018-01-22T03:15:49.673Z,-1.12
2018-01-22T03:18:17.349Z,-1.10
2018-01-22T03:20:45.061Z,-1.08
2018-01-22T03:23:12.843Z,-1.09
2018-01-22T03:25:40.559Z,-1.07
2018-01-22T03:28:08.203Z,-1.06
2018-01-22T03:30:35.977Z,-1.04
2018-01-22T03:33:03.680Z,-1.05
2018-01-22T03:35:31.355Z,-1.07
2018-01-22T03:37:59.010Z,-1.10
2018-01-22T03:40:26.811Z,-1.09
2018-01-22T03:42:54.476Z,-1.09
2018-01-22T03:45:22.170Z,-1.08
2018-01-22T03:47:49.845Z,-1.11
2018-01-22T03:50:18.302Z,-1.13
2018-01-22T03:52:45.959Z,-1.12
2018-01-22T03:55:13.654Z,-1.10
2018-01-22T03:57:43.969Z,-1.08
2018-01-22T04:00:11.716Z,-1.08
2018-01-22T04:02:39.381Z,-1.09
2018-01-22T04:05:07.066Z,-1.10
2018-01-22T04:07:34.722Z,-1.10
2018-01-22T04:10:02.374Z,-1.11
2018-01-22T04:12:30.220Z,-1.10
2018-01-22T04:14:57.883Z,-1.09
2018-01-22T04:17:25.539Z,-1.07
2018-01-22T04:19:53.921Z,-1.07
2018-01-22T04:22:21.634Z,-1.07
2018-01-22T04:24:49.441Z,-1.07
2018-01-22T04:27:17.140Z,-1.07
2018-01-22T04:29:45.040Z,-1.05
2018-01-22T04:32:13.084Z,-1.03
2018-01-22T04:34:40.744Z,-1.02
2018-01-22T04:37:08.462Z,-1.02
2018-01-22T04:39:36.189Z,-1.02
2018-01-22T04:42:04.626Z,-1.02
2018-01-22T04:44:32.294Z,-1.00
2018-01-22T04:47:00.697Z,-1.02
2018-01-22T04:49:28.431Z,-1.03
2018-01-22T04:52:01.713Z,-1.01
2018-01-22T04:54:29.609Z,-1.01
2018-01-22T04:56:59.933Z,-0.99
2018-01-22T04:59:27.964Z,-0.97
2018-01-22T05:01:55.744Z,-0.94
2018-01-22T05:04:23.559Z,-0.90
2018-01-22T05:06:51.212Z,-0.88
2018-01-22T05:09:20.630Z,-0.88
2018-01-22T05:11:48.372Z,-0.86
2018-01-22T05:14:16.812Z,-0.86
2018-01-22T05:16:44.523Z,-0.85
2018-01-22T05:19:12.315Z,-0.85
2018-01-22T05:21:39.974Z,-0.83
2018-01-22T05:24:07.696Z,-0.81
2018-01-22T05:26:35.403Z,-0.78
2018-01-22T05:29:03.126Z,-0.79
2018-01-22T05:31:30.799Z,-0.80
2018-01-22T05:33:58.480Z,-0.80
2018-01-22T05:36:26.178Z,-0.79
2018-01-22T05:38:53.831Z,-0.80
2018-01-22T05:41:21.587Z,-0.80
2018-01-22T05:43:49.342Z,-0.77
2018-01-22T05:46:17.032Z,-0.78
2018-01-22T05:48:44.705Z,-0.81
2018-01-22T05:51:12.394Z,-0.83
2018-01-22T05:53:40.207Z,-0.81
2018-01-22T05:56:07.900Z,-0.81
2018-01-22T05:58:35.562Z,-0.81
2018-01-22T06:01:04.220Z,-0.80
2018-01-22T06:03:31.893Z,-0.78
2018-01-22T06:05:59.954Z,-0.73
2018-01-22T06:08:29.788Z,-0.72
2018-01-22T06:10:57.522Z,-0.69
2018-01-22T06:13:26.950Z,-0.69
2018-01-22T06:15:54.854Z,-0.68
2018-01-22T06:18:22.564Z,-0.67
2018-01-22T06:20:50.380Z,-0.71
2018-01-22T06:23:18.892Z,-0.73
2018-01-22T06:25:46.586Z,-0.74
2018-01-22T06:28:14.274Z,-0.74
2018-01-22T06:30:41.940Z,-0.74
2018-01-22T06:33:09.976Z,-0.77
2018-01-22T06:35:38.174Z,-0.78
2018-01-22T06:38:05.915Z,-0.79
2018-01-22T06:40:34.338Z,-0.77
2018-01-22T06:43:02.140Z,-0.76
2018-01-22T06:45:29.826Z,-0.73
2018-01-22T06:47:57.546Z,-0.70
2018-01-22T06:52:59.368Z,-0.70
2018-01-22T06:55:27.798Z,-0.70
2018-01-22T06:57:55.493Z,-0.69
2018-01-22T07:00:25.932Z,-0.68
2018-01-22T07:02:53.696Z,-0.68
2018-01-22T07:05:21.562Z,-0.68
2018-01-22T07:07:49.296Z,-0.65
2018-01-22T07:10:17.005Z,-0.64
2018-01-22T07:12:44.744Z,-0.63
2018-01-22T07:15:12.533Z,-0.63
2018-01-22T07:17:40.123Z,-0.60
2018-01-22T07:20:07.700Z,-0.60
2018-01-22T07:22:35.421Z,-0.59
2018-01-22T07:25:03.037Z,-0.55
2018-01-22T07:27:30.732Z,-0.53
2018-01-22T07:29:58.289Z,-0.51
2018-01-22T07:32:26.022Z,-0.47
2018-01-22T07:34:53.673Z,-0.46
2018-01-22T07:37:21.378Z,-0.45
2018-01-22T07:39:49.061Z,-0.44
2018-01-22T07:42:16.611Z,-0.42
2018-01-22T07:44:45.988Z,-0.41
2018-01-22T07:47:13.746Z,-0.37
2018-01-22T07:49:41.402Z,-0.32
2018-01-22T07:52:09.146Z,-0.28
2018-01-22T07:54:36.814Z,-0.27
2018-01-22T07:57:06.508Z,-0.24
2018-01-22T07:59:34.253Z,-0.22
2018-01-22T08:02:02.062Z,-0.21
2018-01-22T08:04:29.862Z,-0.19
2018-01-22T08:06:57.672Z,-0.17
2018-01-22T08:09:25.430Z,-0.14
2018-01-22T08:11:53.084Z,-0.12
2018-01-22T08:14:20.786Z,-0.09
2018-01-22T08:16:49.794Z,-0.03
2018-01-22T08:19:17.504Z,0.00
2018-01-22T08:21:46.352Z,0.06
2018-01-22T08:24:14.225Z,0.10
2018-01-22T08:26:41.930Z,0.14
2018-01-22T08:29:09.605Z,0.20
2018-01-22T08:31:39.048Z,0.24
2018-01-22T08:34:06.797Z,0.25
2018-01-22T08:36:34.478Z,0.28
2018-01-22T08:39:02.148Z,0.32
2018-01-22T08:41:29.900Z,0.34
2018-01-22T08:43:57.543Z,0.36
2018-01-22T08:46:27.067Z,0.41
2018-01-22T08:48:54.763Z,0.49
2018-01-22T08:51:24.022Z,0.54
2018-01-22T08:53:51.777Z,0.57
2018-01-22T08:56:19.451Z,0.62
2018-01-22T08:58:47.875Z,0.65
2018-01-22T09:01:18.132Z,0.65
2018-01-22T09:03:45.895Z,0.64
2018-01-22T09:06:13.585Z,0.66
2018-01-22T09:08:41.307Z,0.66
2018-01-22T09:11:09.075Z,0.63
2018-01-22T09:13:36.812Z,0.67
2018-01-22T09:16:07.292Z,0.69
2018-01-22T09:18:35.013Z,0.72
2018-01-22T09:21:02.757Z,0.75
2018-01-22T09:23:30.577Z,0.77
2018-01-22T09:25:58.294Z,0.77
2018-01-22T09:28:28.678Z,0.76
2018-01-22T09:30:56.431Z,0.75
2018-01-22T09:33:24.094Z,0.73
2018-01-22T09:35:51.803Z,0.75
2018-01-22T09:38:19.443Z,0.77
2018-01-22T09:40:47.117Z,0.82
2018-01-22T09:43:16.402Z,0.83
2018-01-22T09:45:44.164Z,0.85
2018-01-22T09:48:11.999Z,0.86
2018-01-22T09:50:39.701Z,0.89
2018-01-22T09:53:07.650Z,0.89
2018-01-22T09:55:35.655Z,0.95
2018-01-22T09:58:03.527Z,0.99
2018-01-22T10:00:31.205Z,1.03
2018-01-22T10:03:01.473Z,1.03
2018-01-22T10:05:29.381Z,1.09
2018-01-22T10:07:57.078Z,1.15
2018-01-22T10:10:26.497Z,1.21
2018-01-22T10:12:54.326Z,1.19
2018-01-22T10:15:22.011Z,1.20
2018-01-22T10:17:49.757Z,1.21
2018-01-22T10:20:17.429Z,1.26
2018-01-22T10:22:45.112Z,1.25
2018-01-22T10:25:12.812Z,1.29
2018-01-22T10:27:40.727Z,1.25
2018-01-22T10:30:08.388Z,1.29
2018-01-22T10:32:36.103Z,1.31
2018-01-22T10:35:03.839Z,1.37
2018-01-22T10:37:31.527Z,1.37
2018-01-22T10:39:59.205Z,1.35
2018-01-22T10:42:26.931Z,1.32
2018-01-22T10:44:54.749Z,1.32
2018-01-22T10:47:24.038Z,1.30
2018-01-22T10:49:51.764Z,1.28
2018-01-22T10:52:20.253Z,1.31
2018-01-22T10:54:49.673Z,1.36
2018-01-22T10:57:17.347Z,1.37
2018-01-22T10:59:45.053Z,1.37
2018-01-22T11:02:12.669Z,1.37
2018-01-22T11:04:40.419Z,1.39
2018-01-22T11:07:08.130Z,1.38
2018-01-22T11:09:35.831Z,1.40
2018-01-22T11:12:03.495Z,1.42
2018-01-22T11:14:31.164Z,1.39
2018-01-22T11:16:58.949Z,1.33
2018-01-22T11:19:26.579Z,1.34
2018-01-22T11:21:56.130Z,1.36
2018-01-22T11:24:23.860Z,1.37
2018-01-22T11:26:51.763Z,1.33
2018-01-22T11:29:19.469Z,1.35
2018-01-22T11:31:47.176Z,1.36
2018-01-22T11:34:15.574Z,1.35
2018-01-22T11:36:43.273Z,1.39
2018-01-22T11:39:11.822Z,1.45
2018-01-22T11:41:39.751Z,1.48
2018-01-22T11:44:07.461Z,1.50
2018-01-22T11:46:35.235Z,1.52
2018-01-22T11:49:02.894Z,1.51
2018-01-22T11:51:30.549Z,1.49
2018-01-22T11:53:58.280Z,1.50
2018-01-22T11:56:25.973Z,1.52
2018-01-22T11:58:53.638Z,1.53
2018-01-22T12:01:22.865Z,1.54
2018-01-22T12:03:53.608Z,1.55
2018-01-22T12:06:21.294Z,1.56
2018-01-22T12:08:48.953Z,1.58
2018-01-22T12:11:16.598Z,1.60
2018-01-22T12:13:44.287Z,1.61
2018-01-22T12:16:12.760Z,1.60
2018-01-22T12:18:40.520Z,1.62
2018-01-22T12:21:08.165Z,1.58
2018-01-22T12:23:35.840Z,1.56
2018-01-22T12:26:03.572Z,1.58
2018-01-22T12:28:31.215Z,1.63
2018-01-22T12:31:01.165Z,1.64
2018-01-22T12:33:28.829Z,1.65
2018-01-22T12:35:56.511Z,1.64
2018-01-22T12:38:24.223Z,1.63
2018-01-22T12:40:51.929Z,1.62
2018-01-22T12:43:19.705Z,1.60
2018-01-22T12:45:47.404Z,1.61
2018-01-22T12:48:15.084Z,1.63
2018-01-22T12:50:43.750Z,1.58
2018-01-22T12:53:12.202Z,1.57
2018-01-22T12:55:39.999Z,1.53
2018-01-22T12:58:07.783Z,1.51
2018-01-22T13:00:35.533Z,1.48
2018-01-22T13:03:04.833Z,1.51
2018-01-22T13:05:32.561Z,1.50
2018-01-22T13:08:00.378Z,1.51
2018-01-22T13:10:28.040Z,1.55
2018-01-22T13:12:55.736Z,1.57
2018-01-22T13:15:23.404Z,1.60
2018-01-22T13:17:51.062Z,1.61
2018-01-22T13:20:18.777Z,1.63
2018-01-22T13:22:48.123Z,1.64
2018-01-22T13:25:15.817Z,1.63
2018-01-22T13:27:45.087Z,1.63
2018-01-22T13:30:12.806Z,1.65
2018-01-22T13:32:40.434Z,1.68
2018-01-22T13:35:08.134Z,1.68
2018-01-22T13:37:35.788Z,1.69
2018-01-22T13:40:09.032Z,1.69
2018-01-22T13:42:38.486Z,1.70
2018-01-22T13:45:06.200Z,1.70
2018-01-22T13:47:33.972Z,1.71
2018-01-22T13:50:01.654Z,1.73
2018-01-22T13:52:29.284Z,1.70
2018-01-22T13:54:57.118Z,1.66
2018-01-22T13:57:25.648Z,1.65
2018-01-22T13:59:55.079Z,1.65
2018-01-22T14:02:22.829Z,1.65
2018-01-22T14:04:50.599Z,1.65
2018-01-22T14:07:18.256Z,1.65
2018-01-22T14:09:46.642Z,1.65
2018-01-22T14:12:14.344Z,1.63
2018-01-22T14:14:42.088Z,1.61
2018-01-22T14:17:09.800Z,1.60
2018-01-22T14:19:37.421Z,1.58
2018-01-22T14:22:05.089Z,1.57
2018-01-22T14:24:32.742Z,1.55
2018-01-22T14:27:00.391Z,1.54
2018-01-22T14:29:30.831Z,1.54
2018-01-22T14:31:58.530Z,1.54
2018-01-22T14:34:26.196Z,1.54
2018-01-22T14:36:56.030Z,1.53
2018-01-22T14:39:23.709Z,1.53
2018-01-22T14:41:51.470Z,1.53
2018-01-22T14:44:19.177Z,1.52
2018-01-22T14:46:46.870Z,1.52
2018-01-22T14:49:14.819Z,1.52
2018-01-22T14:51:42.534Z,1.51
2018-01-22T14:54:11.901Z,1.51
2018-01-22T14:56:39.592Z,1.50
2018-01-22T14:59:07.467Z,1.51
2018-01-22T15:01:35.150Z,1.51
2018-01-22T15:04:03.064Z,1.51
2018-01-22T15:06:33.362Z,1.52
2018-01-22T15:09:01.219Z,1.51
2018-01-22T15:11:28.968Z,1.52
2018-01-22T15:13:56.655Z,1.52
2018-01-22T15:16:24.357Z,1.52
2018-01-22T15:18:52.058Z,1.52
2018-01-22T15:21:19.739Z,1.52
2018-01-22T15:23:47.414Z,1.51
2018-01-22T15:26:15.245Z,1.51
2018-01-22T15:28:42.947Z,1.50
2018-01-22T15:31:10.816Z,1.51
2018-01-22T15:33:39.207Z,1.50
2018-01-22T15:36:06.894Z,1.49
2018-01-22T15:38:34.627Z,1.49
2018-01-22T15:41:02.372Z,1.48
2018-01-22T15:43:30.107Z,1.47
2018-01-22T15:45:57.871Z,1.48
2018-01-22T15:48:27.297Z,1.46
2018-01-22T15:50:55.033Z,1.47
2018-01-22T15:53:22.842Z,1.46
2018-01-22T15:55:53.203Z,1.45
2018-01-22T15:58:20.902Z,1.44
2018-01-22T16:00:49.351Z,1.44
2018-01-22T16:03:16.990Z,1.44
2018-01-22T16:05:44.900Z,1.45
2018-01-22T16:08:12.626Z,1.45
2018-01-22T16:10:40.306Z,1.44
2018-01-22T16:13:07.970Z,1.45
2018-01-22T16:15:35.657Z,1.45
2018-01-22T16:18:04.055Z,1.45
2018-01-22T16:20:31.705Z,1.45
2018-01-22T16:22:59.395Z,1.45
2018-01-22T16:25:27.061Z,1.45
2018-01-22T16:27:54.748Z,1.45
2018-01-22T16:30:22.415Z,1.45
2018-01-22T16:32:50.112Z,1.45
2018-01-22T16:35:19.528Z,1.44
2018-01-22T16:37:47.248Z,1.43
2018-01-22T16:40:15.792Z,1.44
2018-01-22T16:42:43.489Z,1.43
2018-01-22T16:45:11.319Z,1.43
2018-01-22T16:47:44.692Z,1.44
2018-01-22T16:50:12.377Z,1.43
2018-01-22T16:52:40.143Z,1.44
2018-01-22T16:55:08.651Z,1.43
2018-01-22T16:57:36.355Z,1.44
2018-01-22T17:00:04.147Z,1.42
2018-01-22T17:02:31.825Z,1.43
2018-01-22T17:04:59.564Z,1.43
2018-01-22T17:07:27.300Z,1.41
2018-01-22T17:09:55.046Z,1.41
2018-01-22T17:12:22.765Z,1.41
2018-01-22T17:14:53.175Z,1.41
2018-01-22T17:17:20.907Z,1.41
2018-01-22T17:19:48.665Z,1.41
2018-01-22T17:22:16.423Z,1.43
2018-01-22T17:24:44.260Z,1.43
2018-01-22T17:27:16.848Z,1.42
2018-01-22T17:29:45.030Z,1.41
2018-01-22T17:32:13.162Z,1.41
2018-01-22T17:34:41.053Z,1.41
2018-01-22T17:37:08.799Z,1.41
2018-01-22T17:39:36.474Z,1.41
2018-01-22T17:42:04.221Z,1.41
2018-01-22T17:44:31.953Z,1.41
2018-01-22T17:46:59.582Z,1.41
2018-01-22T17:49:27.317Z,1.41
2018-01-22T17:51:55.048Z,1.42
2018-01-22T17:54:22.772Z,1.43
2018-01-22T17:56:50.494Z,1.43
2018-01-22T17:59:18.215Z,1.44
2018-01-22T18:01:49.585Z,1.45
2018-01-22T18:04:17.292Z,1.44
2018-01-22T18:06:45.010Z,1.44
2018-01-22T18:09:12.868Z,1.45
2018-01-22T18:11:40.566Z,1.45
2018-01-22T18:14:08.303Z,1.45
2018-01-22T18:16:36.089Z,1.45
2018-01-22T18:19:03.770Z,1.45
2018-01-22T18:21:31.425Z,1.44
2018-01-22T18:23:59.341Z,1.43
2018-01-22T18:26:27.104Z,1.43
2018-01-22T18:29:00.774Z,1.43
2018-01-22T18:31:28.547Z,1.43
2018-01-22T18:33:56.274Z,1.45
2018-01-22T18:36:24.066Z,1.45
2018-01-22T18:38:51.940Z,1.45
2018-01-22T18:41:19.827Z,1.46
2018-01-22T18:43:49.300Z,1.47
2018-01-22T18:46:17.110Z,1.47
2018-01-22T18:48:44.731Z,1.48
2018-01-22T18:51:14.421Z,1.48
2018-01-22T18:53:42.225Z,1.48
2018-01-22T18:56:12.794Z,1.49
2018-01-22T18:58:40.509Z,1.48
2018-01-22T19:01:08.898Z,1.48
2018-01-22T19:03:36.754Z,1.48
2018-01-22T19:06:07.076Z,1.48
2018-01-22T19:08:36.572Z,1.48
2018-01-22T19:11:04.372Z,1.48
2018-01-22T19:13:34.988Z,1.48
2018-01-22T19:16:03.612Z,1.48
2018-01-22T19:18:31.415Z,1.48
2018-01-22T19:20:59.265Z,1.48
2018-01-22T19:23:27.088Z,1.48
2018-01-22T19:25:54.827Z,1.48
2018-01-22T19:28:28.263Z,1.48
2018-01-22T19:30:57.812Z,1.49
2018-01-22T19:33:26.078Z,1.50
2018-01-22T19:35:55.726Z,1.53
2018-01-22T19:38:23.786Z,1.53
2018-01-22T19:40:51.760Z,1.54
2018-01-22T19:43:19.833Z,1.54
2018-01-22T19:45:48.820Z,1.52
2018-01-22T19:48:16.897Z,1.52
2018-01-22T19:50:46.632Z,1.52
2018-01-22T19:53:14.705Z,1.51
2018-01-22T19:55:42.671Z,1.50
2018-01-22T19:58:13.337Z,1.50
2018-01-22T20:00:41.606Z,1.50
2018-01-22T20:03:09.790Z,1.50
2018-01-22T20:05:37.895Z,1.50
2018-01-22T20:08:05.909Z,1.50
2018-01-22T20:10:34.905Z,1.51
2018-01-22T20:13:02.980Z,1.50
2018-01-22T20:15:30.971Z,1.51
2018-01-22T20:17:58.974Z,1.52
2018-01-22T20:20:27.113Z,1.52
2018-01-22T20:22:56.261Z,1.53
2018-01-22T20:25:27.968Z,1.54
2018-01-22T20:27:56.069Z,1.53
2018-01-22T20:30:24.217Z,1.53
2018-01-22T20:32:52.190Z,1.53
2018-01-22T20:35:20.364Z,1.54
2018-01-22T20:37:49.277Z,1.54
2018-01-22T20:40:19.026Z,1.55
2018-01-22T20:42:47.119Z,1.56
2018-01-22T20:45:17.602Z,1.59
2018-01-22T20:47:45.732Z,1.62
2018-01-22T20:50:13.726Z,1.64
2018-01-22T20:52:43.303Z,1.66
2018-01-22T20:55:11.410Z,1.67
2018-01-22T20:57:40.735Z,1.69
2018-01-22T21:00:08.775Z,1.72
2018-01-22T21:02:36.753Z,1.75
2018-01-22T21:05:04.708Z,1.77
2018-01-22T21:07:32.546Z,1.76
2018-01-22T21:10:03.353Z,1.78
2018-01-22T21:12:32.842Z,1.79
2018-01-22T21:15:01.682Z,1.78
2018-01-22T21:17:29.534Z,1.79
2018-01-22T21:19:57.519Z,1.81
2018-01-22T21:22:26.291Z,1.83
2018-01-22T21:24:54.166Z,1.84
2018-01-22T21:27:23.880Z,1.86
2018-01-22T21:29:51.766Z,1.88
2018-01-22T21:32:19.722Z,1.93
2018-01-22T21:34:47.517Z,1.95
2018-01-22T21:37:15.341Z,1.97
2018-01-22T21:39:43.017Z,1.97
2018-01-22T21:42:11.498Z,1.98
2018-01-22T21:44:40.043Z,1.96
2018-01-22T21:47:07.888Z,1.95
2018-01-22T21:49:35.680Z,1.97
2018-01-22T21:52:06.401Z,2.00
2018-01-22T21:54:34.134Z,2.17
2018-01-22T21:57:01.872Z,2.43
2018-01-22T21:59:29.552Z,2.53
2018-01-22T22:01:57.312Z,2.52
2018-01-22T22:04:26.111Z,2.50
2018-01-22T22:06:53.816Z,2.48
2018-01-22T22:09:22.400Z,2.46
2018-01-22T22:11:51.119Z,2.43
2018-01-22T22:14:19.130Z,2.42
2018-01-22T22:16:46.917Z,2.40
2018-01-22T22:19:16.534Z,2.39
2018-01-22T22:21:44.428Z,2.41
2018-01-22T22:24:17.553Z,2.42
2018-01-22T22:26:45.285Z,2.42
2018-01-22T22:29:13.102Z,2.41
2018-01-22T22:31:40.897Z,2.40
2018-01-22T22:34:08.772Z,2.40
2018-01-22T22:36:36.587Z,2.45
2018-01-22T22:39:04.565Z,2.45
2018-01-22T22:41:36.410Z,2.44
2018-01-22T22:44:04.437Z,2.46
2018-01-22T22:46:33.804Z,2.47
2018-01-22T22:49:06.448Z,2.47
2018-01-22T22:51:34.265Z,2.45
2018-01-22T22:54:02.706Z,2.44
2018-01-22T22:56:30.460Z,2.44
2018-01-22T22:58:58.210Z,2.48
2018-01-22T23:01:27.320Z,2.52
2018-01-22T23:03:56.000Z,2.55
2018-01-22T23:06:23.974Z,2.60
2018-01-22T23:08:53.446Z,2.63
2018-01-22T23:11:23.099Z,2.67
2018-01-22T23:13:51.610Z,2.71
2018-01-22T23:16:19.902Z,2.69
2018-01-22T23:18:47.838Z,2.67
2018-01-22T23:21:15.820Z,2.70
2018-01-22T23:23:43.538Z,2.71
2018-01-22T23:26:11.632Z,2.71
2018-01-22T23:28:39.333Z,2.70
2018-01-22T23:31:07.024Z,2.70
2018-01-22T23:33:34.757Z,2.69
2018-01-22T23:36:03.340Z,2.68
2018-01-22T23:38:31.855Z,2.72
2018-01-22T23:40:59.662Z,2.76
2018-01-22T23:43:27.860Z,2.80
2018-01-22T23:45:58.656Z,2.78
2018-01-22T23:48:27.490Z,2.75
2018-01-22T23:50:59.758Z,2.75
2018-01-22T23:53:30.356Z,2.73
2018-01-22T23:55:58.105Z,2.69
2018-01-22T23:58:26.354Z,2.74
